Terminal Aerodrome Forecast
Issued by NWS Lake Charles, LA

Home | Current Version | Previous Version | Text Only | Print | Product List | Glossary On
Versions: 1 2 3 4 5 6 7 8 9 10 11 12 13 14
000
FTUS44 KLCH 060520
TAFLCH
TAF
KLCH 060520Z 0606/0706 13008KT P6SM SCT035
     FM061100 12008KT P6SM FEW015 BKN025
     FM061600 14010KT P6SM SCT030 BKN250=

USA.gov is the U.S. government's official web portal to all federal, state and local government web resources and services.